createdAt,value
2019-03-17T00:00:49.510Z,81.50
2019-03-17T00:01:57.682Z,81.80
2019-03-17T00:03:00.297Z,82.30
2019-03-17T00:04:03.095Z,83.20
2019-03-17T00:05:05.851Z,82.60
2019-03-17T00:06:08.608Z,82.30
2019-03-17T00:07:11.319Z,82.80
2019-03-17T00:08:14.021Z,83.80
2019-03-17T00:09:16.613Z,82.70
2019-03-17T00:10:19.228Z,82.60
2019-03-17T00:11:21.784Z,83.40
2019-03-17T00:12:24.990Z,83.50
2019-03-17T00:13:27.735Z,82.10
2019-03-17T00:14:30.383Z,82.50
2019-03-17T00:15:33.136Z,82.60
2019-03-17T00:16:36.807Z,82.60
2019-03-17T00:17:41.689Z,81.70
2019-03-17T00:18:45.592Z,83.40
2019-03-17T00:19:48.331Z,81.60
2019-03-17T00:20:50.991Z,82.00
2019-03-17T00:21:53.861Z,83.00
2019-03-17T00:22:56.462Z,82.50
2019-03-17T00:23:59.355Z,83.10
2019-03-17T00:25:08.964Z,83.00
2019-03-17T00:26:06.460Z,81.70
2019-03-17T00:27:08.987Z,82.90
2019-03-17T00:28:11.551Z,82.40
2019-03-17T00:29:14.379Z,82.00
2019-03-17T00:30:16.933Z,81.40
2019-03-17T00:31:24.179Z,83.00
2019-03-17T00:32:24.064Z,81.90
2019-03-17T00:33:26.624Z,82.00
2019-03-17T00:34:29.262Z,82.20
2019-03-17T00:35:32.095Z,83.20
2019-03-17T00:36:34.604Z,81.60
2019-03-17T00:37:37.242Z,82.20
2019-03-17T00:38:39.805Z,82.00
2019-03-17T00:39:44.154Z,82.50
2019-03-17T00:40:46.745Z,82.70
2019-03-17T00:41:49.404Z,82.70
2019-03-17T00:42:51.947Z,82.10
2019-03-17T00:43:54.484Z,82.40
2019-03-17T00:44:57.223Z,82.20
2019-03-17T00:45:59.755Z,82.00
2019-03-17T00:47:02.325Z,81.90
2019-03-17T00:48:04.983Z,82.70
2019-03-17T00:49:07.490Z,82.20
2019-03-17T00:50:10.373Z,83.00
2019-03-17T00:51:14.160Z,82.00
2019-03-17T00:52:16.977Z,81.00
2019-03-17T00:53:19.598Z,81.90
2019-03-17T00:54:22.230Z,82.30
2019-03-17T00:55:26.733Z,82.20
2019-03-17T00:56:29.246Z,82.50
2019-03-17T00:57:31.875Z,82.40
2019-03-17T00:58:34.612Z,82.20
2019-03-17T00:59:37.269Z,81.20
2019-03-17T01:00:39.962Z,82.50
2019-03-17T01:01:42.779Z,82.50
2019-03-17T01:02:45.665Z,82.30
2019-03-17T01:03:48.297Z,81.50
2019-03-17T01:04:56.134Z,82.50
2019-03-17T01:05:56.746Z,82.60
2019-03-17T01:07:01.337Z,83.00
2019-03-17T01:08:04.428Z,81.90
2019-03-17T01:09:07.320Z,82.50
2019-03-17T01:10:10.692Z,81.60
2019-03-17T01:11:15.303Z,82.30
2019-03-17T01:12:19.506Z,82.30
2019-03-17T01:13:23.871Z,82.20
2019-03-17T01:14:27.212Z,81.90
2019-03-17T01:15:30.572Z,80.90
2019-03-17T01:16:33.816Z,82.70
2019-03-17T01:17:37.267Z,81.40
2019-03-17T01:18:40.359Z,82.60
2019-03-17T01:19:43.995Z,82.00
2019-03-17T01:20:47.437Z,81.20
2019-03-17T01:21:50.749Z,81.80
2019-03-17T01:22:53.894Z,82.80
2019-03-17T01:23:57.075Z,81.70
2019-03-17T01:25:01.699Z,82.40
2019-03-17T01:26:05.153Z,82.50
2019-03-17T01:27:09.804Z,82.00
2019-03-17T01:28:13.905Z,82.70
2019-03-17T01:29:17.762Z,82.00
2019-03-17T01:30:21.222Z,81.20
2019-03-17T01:31:24.352Z,82.40
2019-03-17T01:32:27.795Z,81.80
2019-03-17T01:33:30.842Z,80.90
2019-03-17T01:34:34.543Z,82.10
2019-03-17T01:35:38.115Z,82.50
2019-03-17T01:36:41.343Z,82.70
2019-03-17T01:37:46.658Z,81.90
2019-03-17T01:38:49.707Z,80.90
2019-03-17T01:39:54.057Z,81.80
2019-03-17T01:40:57.535Z,81.80
2019-03-17T01:42:00.476Z,82.50
2019-03-17T01:43:03.695Z,81.60
2019-03-17T01:44:08.199Z,81.50
2019-03-17T01:45:11.920Z,81.50
2019-03-17T01:46:14.978Z,81.70
2019-03-17T01:47:19.527Z,82.20
2019-03-17T01:48:22.386Z,81.50
2019-03-17T01:49:25.967Z,81.80
2019-03-17T01:50:30.024Z,81.90
2019-03-17T01:51:35.447Z,81.80
2019-03-17T01:52:39.172Z,81.90
2019-03-17T01:53:42.497Z,83.00
2019-03-17T01:54:45.775Z,82.30
2019-03-17T01:55:48.753Z,82.10
2019-03-17T01:56:51.844Z,82.90
2019-03-17T01:57:55.244Z,82.00
2019-03-17T01:58:59.516Z,82.30
2019-03-17T02:00:03.455Z,82.00
2019-03-17T02:01:06.698Z,80.90
2019-03-17T02:02:10.296Z,82.20
2019-03-17T02:03:13.579Z,81.50
2019-03-17T02:04:17.298Z,81.50
2019-03-17T02:05:22.377Z,82.00
2019-03-17T02:06:25.597Z,82.30
2019-03-17T02:07:29.051Z,81.50
2019-03-17T02:08:33.889Z,81.10
2019-03-17T02:09:37.137Z,81.10
2019-03-17T02:10:40.219Z,81.00
2019-03-17T02:11:44.254Z,81.50
2019-03-17T02:12:46.919Z,82.40
2019-03-17T02:13:49.973Z,81.80
2019-03-17T02:14:53.189Z,81.70
2019-03-17T02:15:55.997Z,81.60
2019-03-17T02:16:59.178Z,81.70
2019-03-17T02:18:02.006Z,81.90
2019-03-17T02:19:04.891Z,82.00
2019-03-17T02:20:09.737Z,81.80
2019-03-17T02:21:13.060Z,81.60
2019-03-17T02:22:16.458Z,81.80
2019-03-17T02:23:19.689Z,81.50
2019-03-17T02:24:22.740Z,81.30
2019-03-17T02:25:25.842Z,81.50
2019-03-17T02:26:29.103Z,81.30
2019-03-17T02:27:34.179Z,81.90
2019-03-17T02:28:37.100Z,81.70
2019-03-17T02:29:40.881Z,82.30
2019-03-17T02:30:44.089Z,82.00
2019-03-17T02:31:47.377Z,81.10
2019-03-17T02:32:51.781Z,81.60
2019-03-17T02:33:55.653Z,80.90
2019-03-17T02:34:59.258Z,82.00
2019-03-17T02:36:02.455Z,80.60
2019-03-17T02:37:05.641Z,80.60
2019-03-17T02:38:08.988Z,81.10
2019-03-17T02:39:13.106Z,81.30
2019-03-17T02:40:18.433Z,80.90
2019-03-17T02:41:21.587Z,81.80
2019-03-17T02:42:24.939Z,82.00
2019-03-17T02:43:29.566Z,81.20
2019-03-17T02:44:32.466Z,80.80
2019-03-17T02:45:36.288Z,81.00
2019-03-17T02:46:39.538Z,81.30
2019-03-17T02:47:42.639Z,82.70
2019-03-17T02:48:46.814Z,81.80
2019-03-17T02:49:50.090Z,80.90
2019-03-17T02:50:53.093Z,81.20
2019-03-17T02:51:56.418Z,82.20
2019-03-17T02:53:01.944Z,80.70
2019-03-17T02:54:04.866Z,81.20
2019-03-17T02:55:07.630Z,82.50
2019-03-17T02:56:10.420Z,81.20
2019-03-17T02:57:13.049Z,81.50
2019-03-17T02:58:15.612Z,81.60
2019-03-17T02:59:18.441Z,81.50
2019-03-17T03:00:21.065Z,81.00
2019-03-17T03:01:23.725Z,81.30
2019-03-17T03:02:26.282Z,82.10
2019-03-17T03:03:28.921Z,81.30
2019-03-17T03:04:31.710Z,81.30
2019-03-17T03:05:34.984Z,81.20
2019-03-17T03:06:38.156Z,80.50
2019-03-17T03:07:41.390Z,81.70
2019-03-17T03:08:44.356Z,80.40
2019-03-17T03:09:48.867Z,80.70
2019-03-17T03:10:54.608Z,80.70
2019-03-17T03:12:00.565Z,80.50
2019-03-17T03:13:03.645Z,80.60
2019-03-17T03:14:09.672Z,80.20
2019-03-17T03:15:13.937Z,82.00
2019-03-17T03:16:18.477Z,81.50
2019-03-17T03:17:21.929Z,81.30
2019-03-17T03:18:26.110Z,80.50
2019-03-17T03:19:28.948Z,81.00
2019-03-17T03:20:32.816Z,82.00
2019-03-17T03:21:36.201Z,80.60
2019-03-17T03:22:39.720Z,80.30
2019-03-17T03:23:42.922Z,81.00
2019-03-17T03:24:46.710Z,81.10
2019-03-17T03:25:49.782Z,81.30
2019-03-17T03:26:53.766Z,81.40
2019-03-17T03:27:57.452Z,80.60
2019-03-17T03:29:00.852Z,80.60
2019-03-17T03:30:04.691Z,81.00
2019-03-17T03:31:11.302Z,80.60
2019-03-17T03:32:14.953Z,80.00
2019-03-17T03:33:18.020Z,80.10
2019-03-17T03:34:21.275Z,81.20
2019-03-17T03:35:24.555Z,80.50
2019-03-17T03:36:27.495Z,80.30
2019-03-17T03:37:30.893Z,81.60
2019-03-17T03:38:34.589Z,81.20
2019-03-17T03:39:38.557Z,81.20
2019-03-17T03:40:41.517Z,79.80
2019-03-17T03:41:44.685Z,80.00
2019-03-17T03:42:47.742Z,80.20
2019-03-17T03:43:50.879Z,79.50
2019-03-17T03:44:53.878Z,80.10
2019-03-17T03:45:57.159Z,80.50
2019-03-17T03:47:00.348Z,80.90
2019-03-17T03:48:03.628Z,80.90
2019-03-17T03:49:06.701Z,81.70
2019-03-17T03:50:10.193Z,81.00
2019-03-17T03:51:13.405Z,80.80
2019-03-17T03:52:16.835Z,80.30
2019-03-17T03:53:20.662Z,81.60
2019-03-17T03:54:25.305Z,80.90
2019-03-17T03:55:28.160Z,81.20
2019-03-17T03:56:31.277Z,80.20
2019-03-17T03:57:34.750Z,80.40
2019-03-17T03:58:37.763Z,80.90
2019-03-17T03:59:40.916Z,80.60
2019-03-17T04:00:45.392Z,80.60
2019-03-17T04:01:50.146Z,80.90
2019-03-17T04:02:53.241Z,80.30
2019-03-17T04:03:56.105Z,80.80
2019-03-17T04:04:59.702Z,80.10
2019-03-17T04:06:02.494Z,80.60
2019-03-17T04:07:05.414Z,80.90
2019-03-17T04:08:08.896Z,80.50
2019-03-17T04:09:14.530Z,78.70
2019-03-17T04:10:18.675Z,79.40
2019-03-17T04:11:21.619Z,80.10
2019-03-17T04:12:27.206Z,79.10
2019-03-17T04:13:31.807Z,79.40
2019-03-17T04:14:35.043Z,79.40
2019-03-17T04:15:38.367Z,79.90
2019-03-17T04:16:42.736Z,80.00
2019-03-17T04:17:45.611Z,79.90
2019-03-17T04:18:49.551Z,80.30
2019-03-17T04:19:52.778Z,79.30
2019-03-17T04:20:55.747Z,79.90
2019-03-17T04:21:59.522Z,80.20
2019-03-17T04:23:02.370Z,79.90
2019-03-17T04:24:05.847Z,78.90
2019-03-17T04:25:09.216Z,79.70
2019-03-17T04:26:12.317Z,80.40
2019-03-17T04:27:15.103Z,79.70
2019-03-17T04:28:17.996Z,79.90
2019-03-17T04:29:24.513Z,79.50
2019-03-17T04:30:27.085Z,80.70
2019-03-17T04:31:29.968Z,78.70
2019-03-17T04:32:32.623Z,79.70
2019-03-17T04:33:35.471Z,81.00
2019-03-17T04:34:38.029Z,80.50
2019-03-17T04:35:42.630Z,80.10
2019-03-17T04:36:46.390Z,79.60
2019-03-17T04:37:49.072Z,79.50
2019-03-17T04:38:53.680Z,79.40
2019-03-17T04:39:56.207Z,79.70
2019-03-17T04:40:58.852Z,79.80
2019-03-17T04:42:01.498Z,79.20
2019-03-17T04:43:04.471Z,80.30
2019-03-17T04:44:07.462Z,79.90
2019-03-17T04:45:10.238Z,79.90
2019-03-17T04:46:12.757Z,79.80
2019-03-17T04:47:15.417Z,79.10
2019-03-17T04:48:17.956Z,79.70
2019-03-17T04:49:20.638Z,79.60
2019-03-17T04:50:23.415Z,79.70
2019-03-17T04:51:26.131Z,80.00
2019-03-17T04:52:29.199Z,78.70
2019-03-17T04:53:31.937Z,79.70
2019-03-17T04:54:36.311Z,79.20
2019-03-17T04:55:38.819Z,79.30
2019-03-17T04:56:41.359Z,80.00
2019-03-17T04:57:44.099Z,79.60
2019-03-17T04:58:46.790Z,78.60
2019-03-17T04:59:49.344Z,79.10
2019-03-17T05:00:51.991Z,79.40
2019-03-17T05:01:54.640Z,79.00
2019-03-17T05:02:57.576Z,79.50
2019-03-17T05:04:00.175Z,79.10
2019-03-17T05:05:03.334Z,80.20
2019-03-17T05:06:05.922Z,78.90
2019-03-17T05:07:08.456Z,80.00
2019-03-17T05:08:10.992Z,80.50
2019-03-17T05:09:13.871Z,79.00
2019-03-17T05:10:16.456Z,80.00
2019-03-17T05:11:20.406Z,80.00
2019-03-17T05:12:23.021Z,80.30
2019-03-17T05:13:25.792Z,80.10
2019-03-17T05:14:28.325Z,79.70
2019-03-17T05:15:31.081Z,80.10
2019-03-17T05:16:35.773Z,80.20
2019-03-17T05:17:38.165Z,79.50
2019-03-17T05:18:40.820Z,79.30
2019-03-17T05:19:43.540Z,80.50
2019-03-17T05:20:46.205Z,79.00
2019-03-17T05:21:49.186Z,78.70
2019-03-17T05:22:51.770Z,79.40
2019-03-17T05:23:54.348Z,79.50
2019-03-17T05:24:57.041Z,79.40
2019-03-17T05:25:59.656Z,80.70
2019-03-17T05:27:02.188Z,80.00
2019-03-17T05:28:04.928Z,79.50
2019-03-17T05:29:09.304Z,80.30
2019-03-17T05:30:11.954Z,78.90
2019-03-17T05:31:14.597Z,80.50
2019-03-17T05:32:17.219Z,79.70
2019-03-17T05:33:19.923Z,79.60
2019-03-17T05:34:22.535Z,80.00
2019-03-17T05:35:26.285Z,79.70
2019-03-17T05:36:28.941Z,80.50
2019-03-17T05:37:33.296Z,80.30
2019-03-17T05:38:36.996Z,80.70
2019-03-17T05:39:39.548Z,79.70
2019-03-17T05:40:42.277Z,79.60
2019-03-17T05:41:44.873Z,80.30
2019-03-17T05:42:47.505Z,79.60
2019-03-17T05:43:50.159Z,79.60
2019-03-17T05:44:52.983Z,79.50
2019-03-17T05:45:55.646Z,80.20
2019-03-17T05:46:58.279Z,80.10
2019-03-17T05:48:00.861Z,80.00
2019-03-17T05:49:03.671Z,78.90
2019-03-17T05:50:06.692Z,79.30
2019-03-17T05:51:09.190Z,79.40
2019-03-17T05:52:11.894Z,81.10
2019-03-17T05:53:14.566Z,80.40
2019-03-17T05:54:18.242Z,80.80
2019-03-17T05:55:20.780Z,80.50
2019-03-17T05:56:25.116Z,80.00
2019-03-17T05:57:27.657Z,80.30
2019-03-17T05:58:30.311Z,79.50
2019-03-17T05:59:33.058Z,80.00
2019-03-17T06:00:35.701Z,79.60
2019-03-17T06:01:38.250Z,80.50
2019-03-17T06:02:42.001Z,80.10
2019-03-17T06:03:44.898Z,79.90
2019-03-17T06:04:47.672Z,79.50
2019-03-17T06:05:50.355Z,80.30
2019-03-17T06:06:52.888Z,79.90
2019-03-17T06:07:55.678Z,79.50
2019-03-17T06:08:58.430Z,79.30
2019-03-17T06:10:01.151Z,79.90
2019-03-17T06:11:03.804Z,79.70
2019-03-17T06:12:06.349Z,79.20
2019-03-17T06:13:09.019Z,80.00
2019-03-17T06:14:11.576Z,79.40
2019-03-17T06:15:14.315Z,78.70
2019-03-17T06:16:16.941Z,79.00
2019-03-17T06:17:19.660Z,79.90
2019-03-17T06:18:22.234Z,81.20
2019-03-17T06:19:24.863Z,83.20
2019-03-17T06:20:27.462Z,82.10
2019-03-17T06:21:30.067Z,82.20
2019-03-17T06:22:32.815Z,83.00
2019-03-17T06:23:35.830Z,82.60
2019-03-17T06:24:38.435Z,83.10
2019-03-17T06:25:40.981Z,83.30
2019-03-17T06:26:43.653Z,86.00
2019-03-17T06:27:46.297Z,84.80
2019-03-17T06:28:48.990Z,85.20
2019-03-17T06:29:51.630Z,85.10
2019-03-17T06:30:54.379Z,85.60
2019-03-17T06:31:57.188Z,86.30
2019-03-17T06:33:01.711Z,86.10
2019-03-17T06:34:04.379Z,87.20
2019-03-17T06:35:07.408Z,85.90
2019-03-17T06:36:10.312Z,88.80
2019-03-17T06:37:13.111Z,86.90
2019-03-17T06:38:15.974Z,86.70
2019-03-17T06:39:18.695Z,86.00
2019-03-17T06:40:21.286Z,86.30
2019-03-17T06:41:23.888Z,85.70
2019-03-17T06:42:27.672Z,86.60
2019-03-17T06:43:32.018Z,85.90
2019-03-17T06:44:34.575Z,84.90
2019-03-17T06:45:37.204Z,85.60
2019-03-17T06:46:39.776Z,87.60
2019-03-17T06:47:43.799Z,84.80
2019-03-17T06:48:46.692Z,85.20
2019-03-17T06:49:49.295Z,86.40
2019-03-17T06:50:52.228Z,84.70
2019-03-17T06:51:54.926Z,85.10
2019-03-17T06:52:57.472Z,85.90
2019-03-17T06:54:00.226Z,86.20
2019-03-17T06:55:03.053Z,85.70
2019-03-17T06:56:06.143Z,84.80
2019-03-17T06:57:08.790Z,85.90
2019-03-17T06:58:13.120Z,85.60
2019-03-17T06:59:17.596Z,86.80
2019-03-17T07:00:20.513Z,85.90
2019-03-17T07:01:23.263Z,84.80
2019-03-17T07:02:25.784Z,85.20
2019-03-17T07:03:28.502Z,84.80
2019-03-17T07:04:31.450Z,85.60
2019-03-17T07:05:34.536Z,83.70
2019-03-17T07:06:38.859Z,85.50
2019-03-17T07:07:44.459Z,85.00
2019-03-17T07:08:45.852Z,86.10
2019-03-17T07:09:48.744Z,85.90
2019-03-17T07:10:51.320Z,85.60
2019-03-17T07:11:55.641Z,86.00
2019-03-17T07:12:58.279Z,86.70
2019-03-17T07:14:01.042Z,85.40
2019-03-17T07:15:04.238Z,86.70
2019-03-17T07:16:06.879Z,86.20
2019-03-17T07:17:09.388Z,86.90
2019-03-17T07:18:11.931Z,88.10
2019-03-17T07:19:14.467Z,88.00
2019-03-17T07:20:17.001Z,87.30
2019-03-17T07:21:19.568Z,87.30
2019-03-17T07:22:22.232Z,86.90
2019-03-17T07:23:24.766Z,87.20
2019-03-17T07:24:27.564Z,87.00
2019-03-17T07:25:30.300Z,87.30
2019-03-17T07:26:33.011Z,87.00
2019-03-17T07:27:35.686Z,86.10
2019-03-17T07:28:38.327Z,86.30
2019-03-17T07:29:40.957Z,86.50
2019-03-17T07:30:43.711Z,87.30
2019-03-17T07:31:48.054Z,87.20
2019-03-17T07:32:50.614Z,88.50
2019-03-17T07:33:53.234Z,87.50
2019-03-17T07:34:55.814Z,87.90
2019-03-17T07:35:58.372Z,87.20
2019-03-17T07:37:01.116Z,87.40
2019-03-17T07:38:03.712Z,86.30
2019-03-17T07:39:12.054Z,85.00
2019-03-17T07:40:11.868Z,85.30
2019-03-17T07:41:14.717Z,86.50
2019-03-17T07:42:20.025Z,86.00
2019-03-17T07:43:22.661Z,86.40
2019-03-17T07:44:25.389Z,86.20
2019-03-17T07:45:28.044Z,86.10
2019-03-17T07:46:30.869Z,86.30
2019-03-17T07:47:35.586Z,86.70
2019-03-17T07:48:38.021Z,87.00
2019-03-17T07:49:40.765Z,86.60
2019-03-17T07:50:43.392Z,86.30
2019-03-17T07:51:46.047Z,85.40
2019-03-17T07:52:48.582Z,84.50
2019-03-17T07:53:51.243Z,84.50
2019-03-17T07:54:53.770Z,84.30
2019-03-17T07:55:57.621Z,84.50
2019-03-17T07:57:01.968Z,84.70
2019-03-17T07:58:04.719Z,84.40
2019-03-17T07:59:07.673Z,84.60
2019-03-17T08:00:10.206Z,85.00
2019-03-17T08:01:12.719Z,85.00
2019-03-17T08:02:15.255Z,85.80
2019-03-17T08:03:17.894Z,85.00
2019-03-17T08:04:20.595Z,85.90
2019-03-17T08:05:23.341Z,85.50
2019-03-17T08:06:26.096Z,86.30
2019-03-17T08:07:28.751Z,84.90
2019-03-17T08:08:31.441Z,86.70
2019-03-17T08:09:34.165Z,86.90
2019-03-17T08:10:38.664Z,87.80
2019-03-17T08:11:41.312Z,87.70
2019-03-17T08:12:44.024Z,88.10
2019-03-17T08:13:46.730Z,87.90
2019-03-17T08:14:49.271Z,87.20
2019-03-17T08:15:52.114Z,88.90
2019-03-17T08:16:54.660Z,88.60
2019-03-17T08:17:57.508Z,89.10
2019-03-17T08:19:00.163Z,89.20
2019-03-17T08:20:03.262Z,89.40
2019-03-17T08:21:05.948Z,90.40
2019-03-17T08:22:08.557Z,90.20
2019-03-17T08:23:11.334Z,90.10
2019-03-17T08:24:13.998Z,89.50
2019-03-17T08:25:16.619Z,90.70
2019-03-17T08:26:19.153Z,90.50
2019-03-17T08:27:21.717Z,91.00
2019-03-17T08:28:24.366Z,91.10
2019-03-17T08:29:26.998Z,90.30
2019-03-17T08:30:29.566Z,90.60
2019-03-17T08:31:32.164Z,90.70
2019-03-17T08:32:35.883Z,90.70
2019-03-17T08:33:38.837Z,90.70
2019-03-17T08:34:42.737Z,91.40
2019-03-17T08:35:45.397Z,90.60
2019-03-17T08:36:47.966Z,91.60
2019-03-17T08:37:50.532Z,91.90
2019-03-17T08:38:53.131Z,91.70
2019-03-17T08:39:55.768Z,91.10
2019-03-17T08:40:58.500Z,91.60
2019-03-17T08:42:01.438Z,91.30
2019-03-17T08:43:05.774Z,92.10
2019-03-17T08:44:08.320Z,91.40
2019-03-17T08:45:10.977Z,91.70
2019-03-17T08:46:13.779Z,91.70
2019-03-17T08:47:16.534Z,91.90
2019-03-17T08:48:19.204Z,92.20
2019-03-17T08:49:21.696Z,91.40
2019-03-17T08:50:24.297Z,91.50
2019-03-17T08:51:27.032Z,91.70
2019-03-17T08:52:30.090Z,92.40
2019-03-17T08:53:32.835Z,92.20
2019-03-17T08:54:35.368Z,93.00
2019-03-17T08:55:38.011Z,92.80
2019-03-17T08:56:40.575Z,92.60
2019-03-17T08:57:43.392Z,93.40
2019-03-17T08:58:45.918Z,92.60
2019-03-17T08:59:48.555Z,93.50
2019-03-17T09:00:51.361Z,93.30
2019-03-17T09:01:53.964Z,93.00
2019-03-17T09:02:56.484Z,93.60
2019-03-17T09:03:59.011Z,94.10
2019-03-17T09:05:01.654Z,94.20
2019-03-17T09:06:04.189Z,94.40
2019-03-17T09:07:06.762Z,95.00
2019-03-17T09:08:09.504Z,94.60
2019-03-17T09:09:12.098Z,94.70
2019-03-17T09:10:14.645Z,95.40
2019-03-17T09:11:17.223Z,95.00
2019-03-17T09:12:20.050Z,94.90
2019-03-17T09:13:22.557Z,95.80
2019-03-17T09:14:25.245Z,96.40
2019-03-17T09:15:28.035Z,95.70
2019-03-17T09:16:31.909Z,96.10
2019-03-17T09:17:34.536Z,95.60
2019-03-17T09:18:37.201Z,96.40
2019-03-17T09:19:39.960Z,96.70
2019-03-17T09:20:42.818Z,95.60
2019-03-17T09:21:45.393Z,94.60
2019-03-17T09:22:49.177Z,94.60
2019-03-17T09:23:52.100Z,94.60
2019-03-17T09:24:54.796Z,95.20
2019-03-17T09:25:59.166Z,94.90
2019-03-17T09:27:01.854Z,94.90
2019-03-17T09:28:04.695Z,95.20
2019-03-17T09:29:07.479Z,95.50
2019-03-17T09:30:11.722Z,95.60
2019-03-17T09:31:14.397Z,94.90
2019-03-17T09:32:16.943Z,95.50
2019-03-17T09:33:19.570Z,95.70
2019-03-17T09:34:22.226Z,94.50
2019-03-17T09:35:24.757Z,92.70
2019-03-17T09:36:27.496Z,95.10
2019-03-17T09:37:30.101Z,95.10
2019-03-17T09:38:32.835Z,94.80
2019-03-17T09:39:35.485Z,93.90
2019-03-17T09:40:39.876Z,93.90
2019-03-17T09:41:45.166Z,94.10
2019-03-17T09:42:49.514Z,93.90
2019-03-17T09:43:52.262Z,94.10
2019-03-17T09:44:54.853Z,94.50
2019-03-17T09:45:57.520Z,94.00
2019-03-17T09:47:00.173Z,94.10
2019-03-17T09:48:02.716Z,94.20
2019-03-17T09:49:05.255Z,94.40
2019-03-17T09:50:08.578Z,92.70
2019-03-17T09:51:11.306Z,93.20
2019-03-17T09:52:13.844Z,93.50
2019-03-17T09:53:16.410Z,93.80
2019-03-17T09:54:19.293Z,93.00
2019-03-17T09:55:22.176Z,94.20
2019-03-17T09:56:25.857Z,92.90
2019-03-17T09:57:28.426Z,92.70
2019-03-17T09:58:32.080Z,93.90
2019-03-17T09:59:34.867Z,92.40
2019-03-17T10:00:38.764Z,93.00
2019-03-17T10:01:41.510Z,93.20
2019-03-17T10:02:44.050Z,94.10
2019-03-17T10:03:46.782Z,93.10
2019-03-17T10:04:50.504Z,93.90
2019-03-17T10:05:53.017Z,93.20
2019-03-17T10:06:55.742Z,93.00
2019-03-17T10:07:58.806Z,93.60
2019-03-17T10:09:01.324Z,93.40
2019-03-17T10:10:04.371Z,92.90
2019-03-17T10:11:07.061Z,92.10
2019-03-17T10:12:09.847Z,94.40
2019-03-17T10:13:12.598Z,92.90
2019-03-17T10:14:15.393Z,92.80
2019-03-17T10:15:18.065Z,92.50
2019-03-17T10:16:20.608Z,92.80
2019-03-17T10:17:23.287Z,92.70
2019-03-17T10:18:26.196Z,92.70
2019-03-17T10:19:28.742Z,93.30
2019-03-17T10:20:31.357Z,92.80
2019-03-17T10:21:33.999Z,94.30
2019-03-17T10:22:36.566Z,93.80
2019-03-17T10:23:39.244Z,91.70
2019-03-17T10:24:41.801Z,92.80
2019-03-17T10:25:44.415Z,92.00
2019-03-17T10:26:47.159Z,92.10
2019-03-17T10:27:49.770Z,92.40
2019-03-17T10:28:52.330Z,92.80
2019-03-17T10:29:54.871Z,93.10
2019-03-17T10:30:57.440Z,92.60
2019-03-17T10:32:00.017Z,92.30
2019-03-17T10:33:02.566Z,92.00
2019-03-17T10:34:05.187Z,90.80
2019-03-17T10:35:07.738Z,91.40
2019-03-17T10:36:10.341Z,91.70
2019-03-17T10:37:13.021Z,91.30
2019-03-17T10:38:15.631Z,91.80
2019-03-17T10:39:18.321Z,90.80
2019-03-17T10:40:22.065Z,92.80
2019-03-17T10:41:24.746Z,92.10
2019-03-17T10:42:27.346Z,92.10
2019-03-17T10:43:29.987Z,91.30
2019-03-17T10:44:32.627Z,89.70
2019-03-17T10:45:35.438Z,90.00
2019-03-17T10:46:38.216Z,90.70
2019-03-17T10:47:40.770Z,91.50
2019-03-17T10:48:43.467Z,91.00
2019-03-17T10:49:46.198Z,88.40
2019-03-17T10:50:49.989Z,89.90
2019-03-17T10:51:52.914Z,90.20
2019-03-17T10:52:55.849Z,90.50
2019-03-17T10:53:58.406Z,90.30
2019-03-17T10:55:00.942Z,90.10
2019-03-17T10:56:03.469Z,88.90
2019-03-17T10:57:06.182Z,90.50
2019-03-17T10:58:09.150Z,88.40
2019-03-17T10:59:11.700Z,89.40
2019-03-17T11:00:14.870Z,91.00
2019-03-17T11:01:17.595Z,90.20
2019-03-17T11:02:20.161Z,90.60
2019-03-17T11:03:22.747Z,90.80
2019-03-17T11:04:26.424Z,87.70
2019-03-17T11:05:30.912Z,89.60
2019-03-17T11:06:33.592Z,87.70
2019-03-17T11:07:36.256Z,87.90
2019-03-17T11:08:38.910Z,88.00
2019-03-17T11:09:41.502Z,86.50
2019-03-17T11:10:44.553Z,90.20
2019-03-17T11:11:47.133Z,89.30
2019-03-17T11:12:49.737Z,87.80
2019-03-17T11:13:52.520Z,91.00
2019-03-17T11:14:55.187Z,90.10
2019-03-17T11:15:57.779Z,90.00
2019-03-17T11:17:01.427Z,90.60
2019-03-17T11:18:04.002Z,86.70
2019-03-17T11:19:06.849Z,87.30
2019-03-17T11:20:10.002Z,86.80
2019-03-17T11:21:12.596Z,91.00
2019-03-17T11:22:15.330Z,88.50
2019-03-17T11:23:18.163Z,89.30
2019-03-17T11:24:20.814Z,90.60
2019-03-17T11:25:23.512Z,90.10
2019-03-17T11:26:26.186Z,89.50
2019-03-17T11:27:28.859Z,88.40
2019-03-17T11:28:31.435Z,88.30
2019-03-17T11:29:33.992Z,86.70
2019-03-17T11:30:38.442Z,86.70
2019-03-17T11:31:41.004Z,87.50
2019-03-17T11:32:43.839Z,85.40
2019-03-17T11:33:46.401Z,85.20
2019-03-17T11:34:49.147Z,87.10
2019-03-17T11:35:51.745Z,86.90
2019-03-17T11:36:54.494Z,85.30
2019-03-17T11:37:57.058Z,85.10
2019-03-17T11:39:00.141Z,84.10
2019-03-17T11:40:03.319Z,86.70
2019-03-17T11:41:06.170Z,84.20
2019-03-17T11:42:08.697Z,85.40
2019-03-17T11:43:11.268Z,85.50
2019-03-17T11:44:14.023Z,86.10
2019-03-17T11:45:16.777Z,85.60
2019-03-17T11:46:19.345Z,84.10
2019-03-17T11:47:21.896Z,85.50
2019-03-17T11:48:24.669Z,86.40
2019-03-17T11:49:27.232Z,87.80
2019-03-17T11:50:29.818Z,88.60
2019-03-17T11:51:32.654Z,87.50
2019-03-17T11:52:35.231Z,87.50
2019-03-17T11:53:37.778Z,87.50
2019-03-17T11:54:40.455Z,84.50
2019-03-17T11:55:43.016Z,87.60
2019-03-17T11:56:45.603Z,89.30
2019-03-17T11:57:48.376Z,87.30
2019-03-17T11:58:51.174Z,87.80
2019-03-17T11:59:53.724Z,88.60
2019-03-17T12:00:56.517Z,86.70
2019-03-17T12:01:59.369Z,89.00
2019-03-17T12:03:03.784Z,90.30
2019-03-17T12:04:06.338Z,90.00
2019-03-17T12:05:09.202Z,90.60
2019-03-17T12:06:14.843Z,90.60
2019-03-17T12:07:17.478Z,90.20
2019-03-17T12:08:20.147Z,90.20
2019-03-17T12:09:29.197Z,89.60
2019-03-17T12:10:29.945Z,90.00
2019-03-17T12:11:32.627Z,90.60
2019-03-17T12:12:35.203Z,90.30
2019-03-17T12:13:37.936Z,90.00
2019-03-17T12:14:40.475Z,89.80
2019-03-17T12:15:43.054Z,91.10
2019-03-17T12:16:45.921Z,91.20
2019-03-17T12:17:48.473Z,91.10
2019-03-17T12:18:52.821Z,91.00
2019-03-17T12:19:55.549Z,90.70
2019-03-17T12:20:58.129Z,91.60
2019-03-17T12:22:09.068Z,91.90
2019-03-17T12:23:05.490Z,92.90
2019-03-17T12:24:08.119Z,93.20
2019-03-17T12:25:11.814Z,92.60
2019-03-17T12:26:15.620Z,92.70
2019-03-17T12:27:18.571Z,93.10
2019-03-17T12:28:21.140Z,93.10
2019-03-17T12:29:23.967Z,93.90
2019-03-17T12:30:26.658Z,93.20
2019-03-17T12:31:29.419Z,92.50
2019-03-17T12:32:31.961Z,92.60
2019-03-17T12:33:34.540Z,92.30
2019-03-17T12:34:37.310Z,93.00
2019-03-17T12:35:40.010Z,93.00
2019-03-17T12:36:43.467Z,92.80
2019-03-17T12:37:46.198Z,92.50
2019-03-17T12:38:48.952Z,92.60
2019-03-17T12:40:02.107Z,93.00
2019-03-17T12:40:56.294Z,92.40
2019-03-17T12:41:59.015Z,92.50
2019-03-17T12:43:01.659Z,92.80
2019-03-17T12:44:04.265Z,92.90
2019-03-17T12:45:06.912Z,91.60
2019-03-17T12:46:09.526Z,92.80
2019-03-17T12:47:12.466Z,91.90
2019-03-17T12:48:15.119Z,91.90
2019-03-17T12:49:17.874Z,92.00
2019-03-17T12:50:20.497Z,91.10
2019-03-17T12:51:23.079Z,92.20
2019-03-17T12:52:25.773Z,91.50
2019-03-17T12:53:28.395Z,91.40
2019-03-17T12:54:31.076Z,91.30
2019-03-17T12:55:33.769Z,91.50
2019-03-17T12:56:36.332Z,92.00
2019-03-17T12:57:39.071Z,91.60
2019-03-17T12:58:42.800Z,91.70
2019-03-17T12:59:45.484Z,91.40
2019-03-17T13:00:48.136Z,92.00
2019-03-17T13:01:50.828Z,91.50
2019-03-17T13:02:53.643Z,91.30
2019-03-17T13:03:56.211Z,90.80
2019-03-17T13:04:58.763Z,91.80
2019-03-17T13:06:01.439Z,91.50
2019-03-17T13:07:04.186Z,90.90
2019-03-17T13:08:06.781Z,90.70
2019-03-17T13:09:09.506Z,91.50
2019-03-17T13:10:15.941Z,91.10
2019-03-17T13:11:17.978Z,91.80
2019-03-17T13:12:20.636Z,91.40
2019-03-17T13:13:23.362Z,91.50
2019-03-17T13:14:26.040Z,91.10
2019-03-17T13:15:28.846Z,90.20
2019-03-17T13:16:31.610Z,90.70
2019-03-17T13:17:34.258Z,90.70
2019-03-17T13:18:36.810Z,88.10
2019-03-17T13:19:39.350Z,89.90
2019-03-17T13:20:41.947Z,88.90
2019-03-17T13:21:44.534Z,90.10
2019-03-17T13:22:47.140Z,90.00
2019-03-17T13:23:49.793Z,89.90
2019-03-17T13:24:52.351Z,90.20
2019-03-17T13:25:55.018Z,88.40
2019-03-17T13:26:57.651Z,89.00
2019-03-17T13:28:00.300Z,88.50
2019-03-17T13:29:03.290Z,88.70
2019-03-17T13:30:07.562Z,87.60
2019-03-17T13:31:11.442Z,87.90
2019-03-17T13:32:14.125Z,86.40